createdAt,value
2024-05-09T00:01:16.994Z,9.32
2024-05-09T00:06:23.304Z,8.65
2024-05-09T00:11:29.534Z,8.95
2024-05-09T00:16:38.332Z,8.40
2024-05-09T00:21:45.833Z,9.25
2024-05-09T00:26:52.143Z,8.38
2024-05-09T00:32:01.085Z,8.65
2024-05-09T00:37:07.836Z,7.95
2024-05-09T00:42:14.257Z,8.25
2024-05-09T00:47:24.169Z,9.40
2024-05-09T00:52:31.125Z,9.15
2024-05-09T00:57:37.495Z,8.05
2024-05-09T01:02:46.395Z,8.73
2024-05-09T01:07:52.776Z,8.30
2024-05-09T01:12:59.066Z,10.25
2024-05-09T01:18:13.281Z,8.43
2024-05-09T01:23:22.691Z,8.73
2024-05-09T01:28:29.020Z,8.68
2024-05-09T01:33:35.449Z,8.20
2024-05-09T01:38:44.613Z,8.10
2024-05-09T01:43:51.030Z,8.52
2024-05-09T01:48:57.684Z,8.18
2024-05-09T01:54:06.765Z,10.32
2024-05-09T01:59:13.012Z,8.13
2024-05-09T02:04:19.778Z,8.20
2024-05-09T02:09:28.984Z,9.45
2024-05-09T02:14:35.288Z,8.65
2024-05-09T02:19:41.370Z,7.90
2024-05-09T02:24:50.131Z,8.65
2024-05-09T02:29:56.358Z,8.38
2024-05-09T02:35:02.603Z,8.00
2024-05-09T02:40:14.981Z,9.30
2024-05-09T02:45:24.950Z,8.35
2024-05-09T02:50:37.817Z,8.23
2024-05-09T02:55:48.458Z,7.88
2024-05-09T03:00:54.753Z,9.63
2024-05-09T03:06:00.988Z,10.80
2024-05-09T03:11:10.100Z,7.68
2024-05-09T03:16:16.528Z,8.50
2024-05-09T03:21:22.547Z,8.57
2024-05-09T03:26:31.330Z,10.18
2024-05-09T03:31:37.575Z,10.60
2024-05-09T03:36:45.811Z,9.68
2024-05-09T03:41:54.505Z,9.30
2024-05-09T03:47:01.087Z,9.65
2024-05-09T03:52:08.111Z,8.40
2024-05-09T03:57:16.848Z,8.45
2024-05-09T04:02:23.211Z,8.95
2024-05-09T04:07:29.471Z,10.50
2024-05-09T04:12:38.597Z,8.82
2024-05-09T04:17:51.272Z,10.95
2024-05-09T04:22:58.207Z,9.45
2024-05-09T04:28:07.572Z,8.82
2024-05-09T04:33:14.800Z,9.95
2024-05-09T04:38:21.866Z,8.77
2024-05-09T04:43:30.650Z,9.43
2024-05-09T04:48:37.083Z,8.98
2024-05-09T04:53:43.730Z,8.85
2024-05-09T04:58:52.534Z,8.77
2024-05-09T05:03:59.264Z,10.98
2024-05-09T05:09:05.897Z,7.97
2024-05-09T05:14:14.687Z,7.45
2024-05-09T05:19:21.100Z,7.50
2024-05-09T05:24:27.432Z,7.63
2024-05-09T05:29:36.754Z,6.63
2024-05-09T05:34:43.064Z,5.07
2024-05-09T05:39:49.280Z,5.18
2024-05-09T05:44:57.978Z,5.85
2024-05-09T05:50:07.090Z,5.28
2024-05-09T05:55:15.738Z,5.55
2024-05-09T06:00:30.299Z,4.32
2024-05-09T06:05:46.019Z,9.43
2024-05-09T06:10:52.535Z,5.18
2024-05-09T06:16:02.796Z,4.13
2024-05-09T06:21:09.281Z,4.53
2024-05-09T06:26:15.492Z,6.57
2024-05-09T06:31:24.221Z,4.57
2024-05-09T06:36:30.645Z,4.70
2024-05-09T06:41:36.864Z,4.50
2024-05-09T06:46:46.805Z,5.55
2024-05-09T06:51:53.168Z,6.18
2024-05-09T06:56:59.398Z,4.97
2024-05-09T07:02:08.650Z,6.22
2024-05-09T07:07:15.025Z,4.32
2024-05-09T07:12:21.933Z,4.78
2024-05-09T07:17:30.945Z,4.75
2024-05-09T07:22:37.184Z,4.57
2024-05-09T07:27:43.497Z,5.13
2024-05-09T07:32:52.608Z,4.55
2024-05-09T07:37:59.187Z,3.88
2024-05-09T07:43:06.226Z,6.82
2024-05-09T07:49:45.391Z,4.28
2024-05-09T07:53:49.719Z,4.10
2024-05-09T07:58:58.689Z,3.97
2024-05-09T08:04:07.499Z,3.47
2024-05-09T08:09:19.455Z,3.78
2024-05-09T08:14:27.535Z,5.07
2024-05-09T08:19:38.307Z,6.32
2024-05-09T08:24:46.885Z,5.53
2024-05-09T08:29:53.309Z,3.35
2024-05-09T08:35:02.662Z,6.35
2024-05-09T08:40:23.475Z,3.38
2024-05-09T08:45:44.160Z,5.20
2024-05-09T08:50:59.660Z,3.35
2024-05-09T08:56:06.785Z,5.57
2024-05-09T09:01:13.372Z,3.88
2024-05-09T09:06:26.716Z,3.22
2024-05-09T09:11:33.644Z,5.18
2024-05-09T09:16:40.746Z,3.72
2024-05-09T09:21:49.779Z,4.93
2024-05-09T09:26:57.123Z,3.30
2024-05-09T09:32:04.080Z,6.05
2024-05-09T09:37:14.974Z,3.25
2024-05-09T09:42:26.175Z,5.90
2024-05-09T09:47:33.676Z,4.60
2024-05-09T09:52:42.896Z,2.83
2024-05-09T09:57:51.618Z,2.97
2024-05-09T10:02:58.000Z,3.38
2024-05-09T10:08:10.238Z,3.60
2024-05-09T10:13:16.741Z,2.50
2024-05-09T10:18:29.172Z,3.92
2024-05-09T10:23:39.288Z,4.22
2024-05-09T10:28:47.771Z,3.78
2024-05-09T10:33:55.440Z,2.80
2024-05-09T10:39:05.500Z,2.47
2024-05-09T10:44:15.367Z,3.45
2024-05-09T10:49:21.833Z,5.25
2024-05-09T10:54:39.776Z,6.68
2024-05-09T10:59:46.264Z,4.57
2024-05-09T11:04:53.342Z,3.95
2024-05-09T11:10:02.723Z,2.88
2024-05-09T11:15:09.842Z,4.93
2024-05-09T11:20:22.934Z,4.30
2024-05-09T11:25:37.946Z,3.35
2024-05-09T11:30:44.289Z,5.03
2024-05-09T11:35:51.129Z,5.95
2024-05-09T11:40:59.814Z,2.95
2024-05-09T11:46:06.911Z,4.78
2024-05-09T11:51:13.240Z,3.10
2024-05-09T11:56:22.300Z,3.72
2024-05-09T12:01:28.670Z,5.28
2024-05-09T12:06:35.373Z,4.25
2024-05-09T12:11:44.192Z,2.45
2024-05-09T12:16:50.604Z,3.92
2024-05-09T12:21:56.924Z,5.35
2024-05-09T12:27:05.644Z,2.33
2024-05-09T12:32:12.023Z,2.60
2024-05-09T12:37:19.253Z,2.53
2024-05-09T12:42:29.895Z,6.75
2024-05-09T12:47:37.612Z,4.90
2024-05-09T12:52:44.021Z,2.33
2024-05-09T12:57:52.986Z,2.33
2024-05-09T13:02:59.379Z,3.53
2024-05-09T13:08:07.240Z,3.08
2024-05-09T13:13:16.358Z,3.55
2024-05-09T13:18:22.920Z,5.00
2024-05-09T13:23:29.288Z,4.13
2024-05-09T13:28:38.307Z,2.65
2024-05-09T13:33:45.306Z,3.38
2024-05-09T13:38:51.898Z,2.45
2024-05-09T13:44:01.013Z,7.47
2024-05-09T13:49:09.441Z,4.88
2024-05-09T13:54:21.086Z,3.80
2024-05-09T13:59:31.137Z,3.38
2024-05-09T14:04:37.960Z,2.92
2024-05-09T14:09:44.651Z,3.60
2024-05-09T14:14:53.569Z,4.10
2024-05-09T14:19:59.870Z,3.90
2024-05-09T14:25:07.517Z,2.85
2024-05-09T14:30:22.951Z,3.00
2024-05-09T14:35:37.662Z,2.33
2024-05-09T14:40:44.872Z,6.50
2024-05-09T14:45:53.891Z,3.25
2024-05-09T14:51:00.394Z,3.03
2024-05-09T14:56:06.792Z,4.38
2024-05-09T15:01:15.570Z,2.70
2024-05-09T15:06:22.118Z,3.47
2024-05-09T15:11:28.539Z,2.13
2024-05-09T15:16:37.465Z,5.75
2024-05-09T15:21:43.742Z,2.40
2024-05-09T15:26:51.525Z,2.22
2024-05-09T15:32:00.440Z,7.15
2024-05-09T15:37:07.512Z,4.80
2024-05-09T15:42:13.951Z,3.17
2024-05-09T15:47:23.489Z,5.22
2024-05-09T15:52:29.896Z,4.22
2024-05-09T15:57:36.278Z,3.85
2024-05-09T16:02:45.876Z,2.80
2024-05-09T16:07:52.390Z,3.50
2024-05-09T16:12:58.743Z,2.55
2024-05-09T16:18:08.089Z,4.47
2024-05-09T16:23:14.902Z,3.85
2024-05-09T16:28:24.527Z,2.72
2024-05-09T16:33:33.515Z,3.05
2024-05-09T16:38:41.094Z,4.25
2024-05-09T16:43:47.296Z,2.75
2024-05-09T16:48:56.628Z,3.30
2024-05-09T16:54:02.896Z,3.45
2024-05-09T16:59:09.348Z,2.95
2024-05-09T17:04:18.757Z,4.13
2024-05-09T17:09:26.153Z,5.32
2024-05-09T17:14:32.469Z,3.08
2024-05-09T17:19:42.554Z,3.22
2024-05-09T17:24:48.973Z,2.97
2024-05-09T17:29:55.407Z,2.13
2024-05-09T17:35:04.529Z,3.95
2024-05-09T17:40:16.771Z,2.33
2024-05-09T17:45:24.053Z,3.40
2024-05-09T17:50:36.001Z,5.38
2024-05-09T17:55:44.052Z,4.28
2024-05-09T18:00:50.588Z,3.78
2024-05-09T18:05:59.936Z,3.80
2024-05-09T18:11:06.551Z,3.38
2024-05-09T18:16:12.922Z,2.95
2024-05-09T18:21:21.727Z,2.85
2024-05-09T18:26:28.103Z,4.15
2024-05-09T18:31:34.390Z,3.28
2024-05-09T18:36:43.730Z,2.90
2024-05-09T18:41:49.860Z,4.07
2024-05-09T18:46:56.081Z,3.20
2024-05-09T18:52:04.945Z,5.43
2024-05-09T18:57:11.544Z,6.60
2024-05-09T19:02:18.220Z,13.05
2024-05-09T19:07:27.020Z,12.60
2024-05-09T19:12:33.580Z,6.60
2024-05-09T19:17:39.843Z,4.70
2024-05-09T19:22:48.644Z,4.80
2024-05-09T19:27:54.972Z,6.15
2024-05-09T19:33:01.506Z,9.20
2024-05-09T19:38:10.686Z,16.13
2024-05-09T19:43:17.056Z,13.20
2024-05-09T19:48:24.531Z,10.70
2024-05-09T19:53:34.275Z,6.15
2024-05-09T19:58:40.762Z,4.30
2024-05-09T20:03:47.149Z,5.28
2024-05-09T20:08:58.346Z,4.05
2024-05-09T20:14:04.601Z,4.97
2024-05-09T20:19:10.905Z,4.25
2024-05-09T20:24:19.927Z,4.93
2024-05-09T20:29:26.580Z,8.15
2024-05-09T20:34:32.930Z,5.25
2024-05-09T20:39:41.884Z,5.25
2024-05-09T20:44:48.119Z,5.47
2024-05-09T20:49:54.445Z,7.72
2024-05-09T20:55:03.437Z,6.93
2024-05-09T21:00:15.391Z,5.82
2024-05-09T21:05:25.488Z,7.50
2024-05-09T21:10:34.896Z,6.00
2024-05-09T21:15:41.497Z,4.40
2024-05-09T21:20:48.047Z,4.22
2024-05-09T21:25:57.009Z,4.20
2024-05-09T21:31:03.278Z,5.38
2024-05-09T21:36:12.133Z,5.32
2024-05-09T21:41:21.390Z,4.22
2024-05-09T21:46:27.654Z,4.00
2024-05-09T21:51:34.016Z,4.32
2024-05-09T21:56:43.057Z,7.30
2024-05-09T22:01:49.407Z,4.28
2024-05-09T22:06:57.261Z,6.97
2024-05-09T22:12:06.458Z,6.90
2024-05-09T22:17:12.764Z,7.00
2024-05-09T22:22:20.480Z,5.00
2024-05-09T22:27:29.224Z,5.22
2024-05-09T22:32:35.541Z,5.18
2024-05-09T22:37:41.869Z,6.15
2024-05-09T22:42:50.645Z,4.82
2024-05-09T22:47:57.808Z,4.07
2024-05-09T22:53:04.653Z,4.53
2024-05-09T22:58:13.486Z,4.90
2024-05-09T23:03:22.038Z,4.03
2024-05-09T23:08:29.168Z,4.25
2024-05-09T23:13:39.034Z,5.35
2024-05-09T23:18:45.426Z,5.03
2024-05-09T23:23:51.658Z,5.78
2024-05-09T23:29:00.419Z,4.75
2024-05-09T23:34:06.902Z,7.22
2024-05-09T23:39:13.087Z,5.78
2024-05-09T23:44:22.049Z,5.30
2024-05-09T23:49:28.928Z,5.40
2024-05-09T23:54:35.112Z,5.65
2024-05-09T23:59:44.189Z,6.63
